createdAt,value
2018-12-21T00:00:29.444Z,3.60
2018-12-21T00:02:56.780Z,4.62
2018-12-21T00:05:24.098Z,3.30
2018-12-21T00:07:51.334Z,3.10
2018-12-21T00:10:18.661Z,3.35
2018-12-21T00:12:45.902Z,3.33
2018-12-21T00:15:13.235Z,3.37
2018-12-21T00:17:40.587Z,3.98
2018-12-21T00:20:09.068Z,3.77
2018-12-21T00:22:36.558Z,4.05
2018-12-21T00:25:04.530Z,3.67
2018-12-21T00:27:31.974Z,4.60
2018-12-21T00:29:59.392Z,3.58
2018-12-21T00:32:32.357Z,3.72
2018-12-21T00:35:05.104Z,4.05
2018-12-21T00:37:37.985Z,3.52
2018-12-21T00:40:11.322Z,3.70
2018-12-21T00:44:50.264Z,3.62
2018-12-21T00:47:18.564Z,3.70
2018-12-21T00:49:45.934Z,3.33
2018-12-21T00:52:13.437Z,4.50
2018-12-21T00:54:40.773Z,5.03
2018-12-21T00:57:08.100Z,4.97
2018-12-21T00:59:35.437Z,3.60
2018-12-21T01:02:02.961Z,4.08
2018-12-21T01:04:30.314Z,4.30
2018-12-21T01:06:57.673Z,4.65
2018-12-21T01:09:25.091Z,4.05
2018-12-21T01:11:52.466Z,5.03
2018-12-21T01:14:19.818Z,5.75
2018-12-21T01:16:47.166Z,4.53
2018-12-21T01:19:14.535Z,4.35
2018-12-21T01:21:41.941Z,4.60
2018-12-21T01:24:09.366Z,4.78
2018-12-21T01:26:36.616Z,4.90
2018-12-21T01:29:04.060Z,5.00
2018-12-21T01:31:31.393Z,4.67
2018-12-21T01:33:58.671Z,5.62
2018-12-21T01:36:25.969Z,4.58
2018-12-21T01:38:53.295Z,5.17
2018-12-21T01:41:20.637Z,5.28
2018-12-21T01:43:47.866Z,4.10
2018-12-21T01:46:15.209Z,4.67
2018-12-21T01:48:42.549Z,4.10
2018-12-21T01:51:09.816Z,4.65
2018-12-21T01:53:37.061Z,4.58
2018-12-21T01:56:04.420Z,4.60
2018-12-21T01:58:31.783Z,4.72
2018-12-21T02:00:59.119Z,4.40
2018-12-21T02:03:26.447Z,4.72
2018-12-21T02:05:53.799Z,4.60
2018-12-21T02:08:21.126Z,5.28
2018-12-21T02:10:48.484Z,4.62
2018-12-21T02:13:15.800Z,4.35
2018-12-21T02:15:43.031Z,5.78
2018-12-21T02:18:10.351Z,5.30
2018-12-21T02:20:37.699Z,4.60
2018-12-21T02:23:05.073Z,5.53
2018-12-21T02:25:32.452Z,5.30
2018-12-21T02:27:59.669Z,4.42
2018-12-21T02:30:27.018Z,5.50
2018-12-21T02:32:54.342Z,4.85
2018-12-21T02:35:21.802Z,5.22
2018-12-21T02:37:49.049Z,5.42
2018-12-21T02:40:16.406Z,5.15
2018-12-21T02:42:43.747Z,4.08
2018-12-21T02:45:11.076Z,3.60
2018-12-21T02:47:38.415Z,4.05
2018-12-21T02:50:05.811Z,4.65
2018-12-21T02:52:33.042Z,4.67
2018-12-21T02:55:00.343Z,4.25
2018-12-21T02:57:27.681Z,4.90
2018-12-21T02:59:54.915Z,4.15
2018-12-21T03:02:22.155Z,4.03
2018-12-21T03:04:49.518Z,4.20
2018-12-21T03:07:16.758Z,3.90
2018-12-21T03:09:44.108Z,4.67
2018-12-21T03:12:11.432Z,4.30
2018-12-21T03:14:38.785Z,3.98
2018-12-21T03:17:06.124Z,3.50
2018-12-21T03:19:33.455Z,4.17
2018-12-21T03:22:00.707Z,4.17
2018-12-21T03:24:28.074Z,4.17
2018-12-21T03:26:55.506Z,4.22
2018-12-21T03:29:22.890Z,4.72
2018-12-21T03:31:50.372Z,4.28
2018-12-21T03:34:17.740Z,3.30
2018-12-21T03:36:45.112Z,4.20
2018-12-21T03:39:12.378Z,3.45
2018-12-21T03:41:39.747Z,5.12
2018-12-21T03:44:07.081Z,3.55
2018-12-21T03:46:34.436Z,3.83
2018-12-21T03:49:01.785Z,4.20
2018-12-21T03:51:29.160Z,3.85
2018-12-21T03:53:56.390Z,3.92
2018-12-21T03:56:23.595Z,3.67
2018-12-21T03:58:50.949Z,3.08
2018-12-21T04:01:18.422Z,3.10
2018-12-21T04:03:45.746Z,3.35
2018-12-21T04:06:13.031Z,4.08
2018-12-21T04:08:40.396Z,3.45
2018-12-21T04:11:07.638Z,3.52
2018-12-21T04:13:34.976Z,3.65
2018-12-21T04:16:02.370Z,3.67
2018-12-21T04:18:29.711Z,3.25
2018-12-21T04:20:57.070Z,3.00
2018-12-21T04:23:24.409Z,2.92
2018-12-21T04:25:51.827Z,2.42
2018-12-21T04:28:19.298Z,2.37
2018-12-21T04:30:46.692Z,1.90
2018-12-21T04:33:13.917Z,2.65
2018-12-21T04:35:41.298Z,2.42
2018-12-21T04:38:08.629Z,2.40
2018-12-21T04:40:35.911Z,2.45
2018-12-21T04:43:03.268Z,2.40
2018-12-21T04:45:30.493Z,2.50
2018-12-21T04:47:57.909Z,2.27
2018-12-21T04:50:25.273Z,2.87
2018-12-21T04:52:52.595Z,2.50
2018-12-21T04:55:19.951Z,2.60
2018-12-21T04:57:47.159Z,2.40
2018-12-21T05:00:14.437Z,2.50
2018-12-21T05:02:41.900Z,2.30
2018-12-21T05:05:09.273Z,2.45
2018-12-21T05:07:36.589Z,2.95
2018-12-21T05:10:04.333Z,3.10
2018-12-21T05:12:31.696Z,2.80
2018-12-21T05:14:59.057Z,3.33
2018-12-21T05:17:26.378Z,3.30
2018-12-21T05:19:53.805Z,3.08
2018-12-21T05:22:21.143Z,3.47
2018-12-21T05:24:48.442Z,3.15
2018-12-21T05:27:15.876Z,2.98
2018-12-21T05:29:43.216Z,3.55
2018-12-21T05:32:10.553Z,3.25
2018-12-21T05:34:37.769Z,3.50
2018-12-21T05:37:05.137Z,3.50
2018-12-21T05:39:32.425Z,3.37
2018-12-21T05:41:59.679Z,3.37
2018-12-21T05:44:26.999Z,3.72
2018-12-21T05:46:54.417Z,3.77
2018-12-21T05:49:21.785Z,4.17
2018-12-21T05:51:49.213Z,4.42
2018-12-21T05:54:16.478Z,4.70
2018-12-21T05:56:43.817Z,3.72
2018-12-21T05:59:11.110Z,5.20
2018-12-21T06:01:38.486Z,5.53
2018-12-21T06:04:05.851Z,5.65
2018-12-21T06:06:33.093Z,4.78
2018-12-21T06:09:00.502Z,5.62
2018-12-21T06:11:27.764Z,4.08
2018-12-21T06:13:55.123Z,3.98
2018-12-21T06:16:22.510Z,3.87
2018-12-21T06:18:49.779Z,5.35
2018-12-21T06:21:17.172Z,3.83
2018-12-21T06:23:44.640Z,4.25
2018-12-21T06:26:12.078Z,3.60
2018-12-21T06:28:39.339Z,4.50
2018-12-21T06:31:06.734Z,3.90
2018-12-21T06:33:34.114Z,4.05
2018-12-21T06:36:01.478Z,4.87
2018-12-21T06:38:28.824Z,4.75
2018-12-21T06:40:56.164Z,3.90
2018-12-21T06:43:23.457Z,3.52
2018-12-21T06:45:50.813Z,4.22
2018-12-21T06:48:18.051Z,4.50
2018-12-21T06:50:45.360Z,4.55
2018-12-21T06:53:17.946Z,4.40
2018-12-21T06:55:42.003Z,4.20
2018-12-21T06:58:09.320Z,3.85
2018-12-21T07:00:36.652Z,3.87
2018-12-21T07:03:03.978Z,3.67
2018-12-21T07:05:31.321Z,3.95
2018-12-21T07:07:58.668Z,5.35
2018-12-21T07:10:25.967Z,4.42
2018-12-21T07:12:53.223Z,6.65
2018-12-21T07:15:20.611Z,8.10
2018-12-21T07:17:47.999Z,5.15
2018-12-21T07:20:15.338Z,8.40
2018-12-21T07:22:42.697Z,9.60
2018-12-21T07:25:10.083Z,8.10
2018-12-21T07:27:37.458Z,9.15
2018-12-21T07:30:08.007Z,6.25
2018-12-21T07:32:35.227Z,5.10
2018-12-21T07:35:02.613Z,3.72
2018-12-21T07:37:29.891Z,3.37
2018-12-21T07:39:57.266Z,3.60
2018-12-21T07:42:24.607Z,3.58
2018-12-21T07:44:52.037Z,3.62
2018-12-21T07:47:19.407Z,4.30
2018-12-21T07:49:46.769Z,3.20
2018-12-21T07:52:14.053Z,3.85
2018-12-21T07:54:41.363Z,2.87
2018-12-21T07:57:08.727Z,5.15
2018-12-21T07:59:35.983Z,3.98
2018-12-21T08:02:03.339Z,3.85
2018-12-21T08:04:30.711Z,5.50
2018-12-21T08:06:58.046Z,5.05
2018-12-21T08:09:25.414Z,4.22
2018-12-21T08:11:52.828Z,4.58
2018-12-21T08:14:20.172Z,7.50
2018-12-21T08:16:47.477Z,6.65
2018-12-21T08:19:14.733Z,6.87
2018-12-21T08:21:42.060Z,5.30
2018-12-21T08:24:09.422Z,6.50
2018-12-21T08:26:36.763Z,6.70
2018-12-21T08:29:04.119Z,6.92
2018-12-21T08:31:31.469Z,8.88
2018-12-21T08:33:58.835Z,9.98
2018-12-21T08:36:26.172Z,7.62
2018-12-21T08:38:53.540Z,7.50
2018-12-21T08:41:20.943Z,7.20
2018-12-21T08:43:48.307Z,6.25
2018-12-21T08:46:15.622Z,6.28
2018-12-21T08:48:42.985Z,5.60
2018-12-21T08:51:10.303Z,6.65
2018-12-21T08:53:37.647Z,6.92
2018-12-21T08:56:04.985Z,7.83
2018-12-21T08:58:32.341Z,7.40
2018-12-21T09:00:59.697Z,7.55
2018-12-21T09:03:26.959Z,7.03
2018-12-21T09:05:54.255Z,6.85
2018-12-21T09:08:21.587Z,5.55
2018-12-21T09:10:48.900Z,6.20
2018-12-21T09:13:16.280Z,4.50
2018-12-21T09:15:43.611Z,10.95
2018-12-21T09:18:11.082Z,8.88
2018-12-21T09:20:38.438Z,5.62
2018-12-21T09:23:05.775Z,4.20
2018-12-21T09:25:33.116Z,4.70
2018-12-21T09:28:00.458Z,4.00
2018-12-21T09:30:27.951Z,5.30
2018-12-21T09:32:55.291Z,4.15
2018-12-21T09:35:22.627Z,4.60
2018-12-21T09:37:50.022Z,3.55
2018-12-21T09:40:17.346Z,3.50
2018-12-21T09:42:44.586Z,3.27
2018-12-21T09:45:12.034Z,3.50
2018-12-21T09:47:39.361Z,3.05
2018-12-21T09:50:08.494Z,2.47
2018-12-21T09:52:36.696Z,2.33
2018-12-21T09:55:04.548Z,3.15
2018-12-21T09:57:31.775Z,2.40
2018-12-21T09:59:59.108Z,2.10
2018-12-21T10:02:26.455Z,1.20
2018-12-21T10:04:53.855Z,2.47
2018-12-21T10:07:27.582Z,1.80
2018-12-21T10:09:50.585Z,1.30
2018-12-21T10:12:17.916Z,1.80
2018-12-21T10:14:45.299Z,1.77
2018-12-21T10:17:12.713Z,2.20
2018-12-21T10:19:40.099Z,1.80
2018-12-21T10:22:07.451Z,1.87
2018-12-21T10:24:34.759Z,1.90
2018-12-21T10:27:02.117Z,3.22
2018-12-21T10:29:29.434Z,1.90
2018-12-21T10:31:56.835Z,1.60
2018-12-21T10:34:24.148Z,4.30
2018-12-21T10:36:52.984Z,1.60
2018-12-21T10:39:20.436Z,2.17
2018-12-21T10:41:47.816Z,3.17
2018-12-21T10:44:15.150Z,3.10
2018-12-21T10:46:42.544Z,2.20
2018-12-21T10:49:09.874Z,1.60
2018-12-21T10:51:37.269Z,2.40
2018-12-21T10:54:04.671Z,1.60
2018-12-21T10:56:32.002Z,1.82
2018-12-21T10:58:59.363Z,2.27
2018-12-21T11:01:26.694Z,2.10
2018-12-21T11:03:54.078Z,1.45
2018-12-21T11:06:21.452Z,2.17
2018-12-21T11:08:48.850Z,2.60
2018-12-21T11:11:16.181Z,1.57
2018-12-21T11:13:43.544Z,1.47
2018-12-21T11:16:11.030Z,1.90
2018-12-21T11:18:38.344Z,2.15
2018-12-21T11:21:05.695Z,1.85
2018-12-21T11:23:32.922Z,2.05
2018-12-21T11:26:02.042Z,1.37
2018-12-21T11:28:29.450Z,1.80
2018-12-21T11:30:56.799Z,2.10
2018-12-21T11:33:24.065Z,2.60
2018-12-21T11:35:51.391Z,3.08
2018-12-21T11:38:18.763Z,2.83
2018-12-21T11:40:46.172Z,3.62
2018-12-21T11:43:16.504Z,3.30
2018-12-21T11:45:43.880Z,2.92
2018-12-21T11:48:11.199Z,3.25
2018-12-21T11:50:38.578Z,3.70
2018-12-21T11:53:06.005Z,2.55
2018-12-21T11:55:33.370Z,3.58
2018-12-21T11:58:00.716Z,3.52
2018-12-21T12:00:28.130Z,3.65
2018-12-21T12:02:55.534Z,4.60
2018-12-21T12:05:29.477Z,7.78
2018-12-21T12:07:56.845Z,6.22
2018-12-21T12:10:24.111Z,3.40
2018-12-21T12:12:51.461Z,2.85
2018-12-21T12:15:18.817Z,3.60
2018-12-21T12:17:46.049Z,5.28
2018-12-21T12:20:13.413Z,4.42
2018-12-21T12:22:40.825Z,5.17
2018-12-21T12:25:08.285Z,6.35
2018-12-21T12:27:35.677Z,5.72
2018-12-21T12:30:03.547Z,6.65
2018-12-21T12:32:30.796Z,8.35
2018-12-21T12:34:58.137Z,5.15
2018-12-21T12:37:25.517Z,6.12
2018-12-21T12:39:52.842Z,5.28
2018-12-21T12:42:20.164Z,4.15
2018-12-21T12:44:47.501Z,6.00
2018-12-21T12:47:14.841Z,4.78
2018-12-21T12:49:42.192Z,4.47
2018-12-21T12:52:09.627Z,8.40
2018-12-21T12:54:36.985Z,8.23
2018-12-21T12:57:04.429Z,7.12
2018-12-21T12:59:31.758Z,7.75
2018-12-21T13:01:59.163Z,8.10
2018-12-21T13:04:26.499Z,3.65
2018-12-21T13:06:53.854Z,3.60
2018-12-21T13:09:21.189Z,4.03
2018-12-21T13:11:48.522Z,3.55
2018-12-21T13:14:16.606Z,4.10
2018-12-21T13:16:44.153Z,2.92
2018-12-21T13:19:11.471Z,4.70
2018-12-21T13:21:38.921Z,6.72
2018-12-21T13:24:06.282Z,6.15
2018-12-21T13:26:33.687Z,5.45
2018-12-21T13:29:01.066Z,5.45
2018-12-21T13:31:28.479Z,4.67
2018-12-21T13:33:55.904Z,4.80
2018-12-21T13:36:23.323Z,4.50
2018-12-21T13:38:50.741Z,6.50
2018-12-21T13:41:18.092Z,4.78
2018-12-21T13:43:45.446Z,4.80
2018-12-21T13:46:12.820Z,4.83
2018-12-21T13:48:40.246Z,5.35
2018-12-21T13:51:07.712Z,4.62
2018-12-21T13:53:35.024Z,4.35
2018-12-21T13:56:02.489Z,6.12
2018-12-21T13:58:29.812Z,6.45
2018-12-21T14:00:57.209Z,11.50
2018-12-21T14:03:24.660Z,3.80
2018-12-21T14:05:52.042Z,4.12
2018-12-21T14:08:19.506Z,4.30
2018-12-21T14:10:47.478Z,3.98
2018-12-21T14:13:14.942Z,5.05
2018-12-21T14:15:42.350Z,5.72
2018-12-21T14:18:09.778Z,5.28
2018-12-21T14:20:37.172Z,8.15
2018-12-21T14:23:04.716Z,5.58
2018-12-21T14:25:32.054Z,5.40
2018-12-21T14:27:59.520Z,4.80
2018-12-21T14:30:26.952Z,5.33
2018-12-21T14:32:54.341Z,6.15
2018-12-21T14:35:21.777Z,6.25
2018-12-21T14:37:49.174Z,4.45
2018-12-21T14:40:16.539Z,3.05
2018-12-21T14:42:44.027Z,3.25
2018-12-21T14:45:11.393Z,3.00
2018-12-21T14:47:38.745Z,3.02
2018-12-21T14:50:08.051Z,4.85
2018-12-21T14:52:35.506Z,3.20
2018-12-21T14:55:03.095Z,4.45
2018-12-21T14:57:30.387Z,2.80
2018-12-21T14:59:57.708Z,2.80
2018-12-21T15:02:25.117Z,2.20
2018-12-21T15:04:52.747Z,1.85
2018-12-21T15:07:20.215Z,1.87
2018-12-21T15:09:47.801Z,1.92
2018-12-21T15:12:15.149Z,2.15
2018-12-21T15:14:42.530Z,2.40
2018-12-21T15:17:09.971Z,2.17
2018-12-21T15:19:37.374Z,3.47
2018-12-21T15:22:04.852Z,5.60
2018-12-21T15:24:32.955Z,5.90
2018-12-21T15:27:00.283Z,5.72
2018-12-21T15:29:27.732Z,6.08
2018-12-21T15:31:55.085Z,4.72
2018-12-21T15:34:22.559Z,4.53
2018-12-21T15:36:49.914Z,4.10
2018-12-21T15:39:17.335Z,5.15
2018-12-21T15:41:44.822Z,3.27
2018-12-21T15:44:12.336Z,3.22
2018-12-21T15:46:39.701Z,2.30
2018-12-21T15:49:07.175Z,4.00
2018-12-21T15:51:34.510Z,2.87
2018-12-21T15:54:02.206Z,2.65
2018-12-21T15:56:29.689Z,3.12
2018-12-21T15:58:57.065Z,4.20
2018-12-21T16:01:24.434Z,3.62
2018-12-21T16:03:51.891Z,3.20
2018-12-21T16:06:19.234Z,3.20
2018-12-21T16:08:47.673Z,4.42
2018-12-21T16:11:15.035Z,5.80
2018-12-21T16:13:42.537Z,3.30
2018-12-21T16:16:09.977Z,4.65
2018-12-21T16:18:37.337Z,4.65
2018-12-21T16:21:04.705Z,5.65
2018-12-21T16:23:32.169Z,4.10
2018-12-21T16:26:03.478Z,2.72
2018-12-21T16:28:28.909Z,2.75
2018-12-21T16:30:56.326Z,2.90
2018-12-21T16:33:23.802Z,4.55
2018-12-21T16:35:51.178Z,4.25
2018-12-21T16:38:18.613Z,5.03
2018-12-21T16:40:45.985Z,3.62
2018-12-21T16:43:13.432Z,3.92
2018-12-21T16:45:40.842Z,3.50
2018-12-21T16:48:08.104Z,3.10
2018-12-21T16:50:35.536Z,4.22
2018-12-21T16:53:02.878Z,4.90
2018-12-21T16:55:30.252Z,10.75
2018-12-21T16:57:57.633Z,8.58
2018-12-21T17:00:24.950Z,4.83
2018-12-21T17:02:52.374Z,8.90
2018-12-21T17:05:19.714Z,3.60
2018-12-21T17:07:47.042Z,3.60
2018-12-21T17:10:18.961Z,4.65
2018-12-21T17:12:46.392Z,4.58
2018-12-21T17:15:13.845Z,4.83
2018-12-21T17:17:41.254Z,4.12
2018-12-21T17:20:09.461Z,5.78
2018-12-21T17:22:36.852Z,6.30
2018-12-21T17:25:06.058Z,6.25
2018-12-21T17:27:33.446Z,7.12
2018-12-21T17:30:00.778Z,10.00
2018-12-21T17:32:28.181Z,8.63
2018-12-21T17:34:55.961Z,9.40
2018-12-21T17:37:23.761Z,5.40
2018-12-21T17:39:51.202Z,4.03
2018-12-21T17:42:18.741Z,3.15
2018-12-21T17:44:46.264Z,3.10
2018-12-21T17:47:13.722Z,3.52
2018-12-21T17:49:41.385Z,3.80
2018-12-21T17:52:08.755Z,4.00
2018-12-21T17:54:36.116Z,4.28
2018-12-21T17:57:03.574Z,3.45
2018-12-21T17:59:31.046Z,4.45
2018-12-21T18:01:58.430Z,4.00
2018-12-21T18:04:28.036Z,3.77
2018-12-21T18:06:55.502Z,6.87
2018-12-21T18:09:24.302Z,7.42
2018-12-21T18:11:57.208Z,5.20
2018-12-21T18:14:21.736Z,7.28
2018-12-21T18:16:49.229Z,12.50
2018-12-21T18:19:16.669Z,17.20
2018-12-21T18:21:49.929Z,13.90
2018-12-21T18:24:17.342Z,11.05
2018-12-21T18:26:44.749Z,8.68
2018-12-21T18:29:12.383Z,8.85
2018-12-21T18:31:48.526Z,6.95
2018-12-21T18:34:20.004Z,21.07
2018-12-21T18:36:47.385Z,11.22
2018-12-21T18:39:15.142Z,9.00
2018-12-21T18:41:42.685Z,7.28
2018-12-21T18:44:10.235Z,6.37
2018-12-21T18:46:37.599Z,5.90
2018-12-21T18:49:05.014Z,5.85
2018-12-21T18:51:32.496Z,9.00
2018-12-21T18:53:59.888Z,12.28
2018-12-21T18:56:29.340Z,10.23
2018-12-21T18:58:56.844Z,5.45
2018-12-21T19:01:25.009Z,6.80
2018-12-21T19:03:52.387Z,7.15
2018-12-21T19:06:19.931Z,2.40
2018-12-21T19:08:47.370Z,3.52
2018-12-21T19:11:14.904Z,2.70
2018-12-21T19:13:42.410Z,2.72
2018-12-21T19:16:09.837Z,1.27
2018-12-21T19:18:37.434Z,1.20
2018-12-21T19:21:04.802Z,1.32
2018-12-21T19:23:32.354Z,1.52
2018-12-21T19:25:59.753Z,1.60
2018-12-21T19:28:27.219Z,3.30
2018-12-21T19:30:54.762Z,7.40
2018-12-21T19:33:22.333Z,5.70
2018-12-21T19:35:50.842Z,4.95
2018-12-21T19:38:18.338Z,6.33
2018-12-21T19:40:46.358Z,5.45
2018-12-21T19:43:13.942Z,13.60
2018-12-21T19:45:41.716Z,6.87
2018-12-21T19:48:09.258Z,5.33
2018-12-21T19:50:37.133Z,3.17
2018-12-21T19:53:04.628Z,4.12
2018-12-21T19:55:53.200Z,2.85
2018-12-21T19:58:20.716Z,2.02
2018-12-21T20:00:48.250Z,1.40
2018-12-21T20:03:16.398Z,1.70
2018-12-21T20:05:43.943Z,1.12
2018-12-21T20:08:11.704Z,1.87
2018-12-21T20:10:39.539Z,1.27
2018-12-21T20:13:08.653Z,1.20
2018-12-21T20:15:36.176Z,1.15
2018-12-21T20:18:04.055Z,0.85
2018-12-21T20:20:31.676Z,0.90
2018-12-21T20:22:59.444Z,0.97
2018-12-21T20:25:27.104Z,0.90
2018-12-21T20:27:54.904Z,1.00
2018-12-21T20:30:23.204Z,0.93
2018-12-21T20:32:50.794Z,1.10
2018-12-21T20:35:18.552Z,0.90
2018-12-21T20:37:46.059Z,0.73
2018-12-21T20:40:13.690Z,0.90
2018-12-21T20:42:41.216Z,1.00
2018-12-21T20:45:11.537Z,0.90
2018-12-21T20:47:39.464Z,0.77
2018-12-21T20:50:10.922Z,0.70
2018-12-21T20:52:38.994Z,0.73
2018-12-21T20:55:07.808Z,0.70
2018-12-21T20:57:36.564Z,0.87
2018-12-21T21:00:07.958Z,0.80
2018-12-21T21:02:35.987Z,0.70
2018-12-21T21:05:03.888Z,0.80
2018-12-21T21:07:31.876Z,0.63
2018-12-21T21:09:59.325Z,0.90
2018-12-21T21:12:26.760Z,0.80
2018-12-21T21:14:54.339Z,0.90
2018-12-21T21:17:21.862Z,0.80
2018-12-21T21:19:49.447Z,0.83
2018-12-21T21:22:16.905Z,1.00
2018-12-21T21:24:46.155Z,0.80
2018-12-21T21:27:13.701Z,0.90
2018-12-21T21:29:41.197Z,0.60
2018-12-21T21:32:08.646Z,0.60
2018-12-21T21:34:36.181Z,0.60
2018-12-21T21:37:03.705Z,1.07
2018-12-21T21:39:31.218Z,0.60
2018-12-21T21:41:58.716Z,0.77
2018-12-21T21:44:26.121Z,0.60
2018-12-21T21:46:55.187Z,0.80
2018-12-21T21:49:22.591Z,0.50
2018-12-21T21:51:50.078Z,1.77
2018-12-21T21:54:17.846Z,0.93
2018-12-21T21:56:45.357Z,3.27
2018-12-21T21:59:12.810Z,2.27
2018-12-21T22:01:40.283Z,5.43
2018-12-21T22:04:07.752Z,2.60
2018-12-21T22:06:35.119Z,0.70
2018-12-21T22:09:03.611Z,1.37
2018-12-21T22:11:30.971Z,1.60
2018-12-21T22:13:58.465Z,1.40
2018-12-21T22:16:25.944Z,1.20
2018-12-21T22:18:53.364Z,0.80
2018-12-21T22:21:20.816Z,0.60
2018-12-21T22:23:48.165Z,0.83
2018-12-21T22:26:15.627Z,0.90
2018-12-21T22:28:43.050Z,0.80
2018-12-21T22:31:10.506Z,0.90
2018-12-21T22:33:37.972Z,0.70
2018-12-21T22:36:05.296Z,0.70
2018-12-21T22:38:32.685Z,2.80
2018-12-21T22:41:00.048Z,1.70
2018-12-21T22:43:27.534Z,1.30
2018-12-21T22:45:54.980Z,0.80
2018-12-21T22:48:22.411Z,0.90
2018-12-21T22:50:49.837Z,0.80
2018-12-21T22:53:17.321Z,1.13
2018-12-21T22:55:44.673Z,1.03
2018-12-21T22:58:12.123Z,1.03
2018-12-21T23:00:40.161Z,0.80
2018-12-21T23:03:07.725Z,0.80
2018-12-21T23:05:35.037Z,1.20
2018-12-21T23:08:02.491Z,0.83
2018-12-21T23:10:29.985Z,0.80
2018-12-21T23:12:57.321Z,0.87
2018-12-21T23:15:24.673Z,0.70
2018-12-21T23:17:51.957Z,0.97
2018-12-21T23:20:19.301Z,0.70
2018-12-21T23:22:46.588Z,0.70
2018-12-21T23:25:13.987Z,0.60
2018-12-21T23:27:41.251Z,0.60
2018-12-21T23:30:08.983Z,0.70
2018-12-21T23:32:36.339Z,0.60
2018-12-21T23:35:04.633Z,0.50
2018-12-21T23:37:31.888Z,0.50
2018-12-21T23:39:59.384Z,0.80
2018-12-21T23:42:26.738Z,0.60
2018-12-21T23:44:54.006Z,0.73
2018-12-21T23:47:21.410Z,0.50
2018-12-21T23:49:48.793Z,0.80
2018-12-21T23:52:16.154Z,0.80
2018-12-21T23:54:43.501Z,0.70
2018-12-21T23:57:10.895Z,0.73
2018-12-21T23:59:38.268Z,0.63
